createdAt,value
2024-05-09T00:01:29.710Z,51.25
2024-05-09T00:03:59.972Z,51.16
2024-05-09T00:06:30.186Z,51.19
2024-05-09T00:09:03.118Z,50.97
2024-05-09T00:11:33.412Z,51.10
2024-05-09T00:14:03.778Z,51.14
2024-05-09T00:16:34.002Z,51.17
2024-05-09T00:19:04.434Z,51.27
2024-05-09T00:21:34.702Z,51.38
2024-05-09T00:24:08.109Z,51.36
2024-05-09T00:26:38.437Z,51.62
2024-05-09T00:29:08.837Z,51.49
2024-05-09T00:31:39.149Z,51.58
2024-05-09T00:34:09.792Z,51.53
2024-05-09T00:36:40.200Z,51.88
2024-05-09T00:39:13.111Z,51.95
2024-05-09T00:41:43.388Z,52.37
2024-05-09T00:44:13.713Z,52.25
2024-05-09T00:46:44.520Z,52.24
2024-05-09T00:49:15.781Z,52.41
2024-05-09T00:51:46.097Z,52.55
2024-05-09T00:54:20.073Z,52.43
2024-05-09T00:56:52.625Z,52.53
2024-05-09T00:59:23.312Z,52.59
2024-05-09T01:01:53.849Z,52.59
2024-05-09T01:04:24.374Z,52.64
2024-05-09T01:06:54.675Z,52.74
2024-05-09T01:09:27.591Z,52.59
2024-05-09T01:11:57.927Z,52.83
2024-05-09T01:14:28.348Z,52.85
2024-05-09T01:16:58.872Z,52.82
2024-05-09T01:19:31.793Z,52.68
2024-05-09T01:22:02.354Z,52.80
2024-05-09T01:24:35.206Z,52.50
2024-05-09T01:27:05.530Z,52.73
2024-05-09T01:29:35.876Z,52.83
2024-05-09T01:32:06.414Z,52.88
2024-05-09T01:34:36.828Z,52.85
2024-05-09T01:37:07.597Z,52.84
2024-05-09T01:39:40.556Z,52.63
2024-05-09T01:42:10.782Z,52.85
2024-05-09T01:44:41.179Z,52.93
2024-05-09T01:47:11.614Z,53.04
2024-05-09T01:49:43.559Z,52.95
2024-05-09T01:52:13.988Z,53.03
2024-05-09T01:54:46.879Z,52.91
2024-05-09T01:57:17.232Z,53.16
2024-05-09T01:59:47.573Z,53.10
2024-05-09T02:02:18.000Z,52.95
2024-05-09T02:04:50.237Z,52.93
2024-05-09T02:07:20.791Z,52.93
2024-05-09T02:09:54.733Z,52.66
2024-05-09T02:12:25.172Z,52.95
2024-05-09T02:14:55.506Z,52.69
2024-05-09T02:17:25.898Z,52.65
2024-05-09T02:19:56.258Z,52.68
2024-05-09T02:22:26.472Z,52.76
2024-05-09T02:24:59.369Z,52.59
2024-05-09T02:27:29.581Z,52.93
2024-05-09T02:29:59.719Z,52.91
2024-05-09T02:32:30.116Z,52.84
2024-05-09T02:35:00.533Z,52.76
2024-05-09T02:37:28.069Z,53.10
2024-05-09T02:40:00.957Z,52.87
2024-05-09T02:42:28.485Z,52.88
2024-05-09T02:44:58.625Z,52.77
2024-05-09T02:47:26.237Z,52.72
2024-05-09T02:49:56.676Z,52.81
2024-05-09T02:52:24.236Z,52.79
2024-05-09T02:54:54.363Z,52.73
2024-05-09T02:57:24.538Z,52.43
2024-05-09T02:59:54.893Z,52.48
2024-05-09T03:02:22.597Z,52.42
2024-05-09T03:04:52.854Z,52.43
2024-05-09T03:07:20.490Z,52.46
2024-05-09T03:09:50.706Z,52.49
2024-05-09T03:12:18.260Z,52.53
2024-05-09T03:14:53.109Z,52.27
2024-05-09T03:17:20.784Z,52.72
2024-05-09T03:19:51.072Z,52.69
2024-05-09T03:22:18.674Z,52.65
2024-05-09T03:24:48.905Z,52.62
2024-05-09T03:27:16.478Z,52.73
2024-05-09T03:29:46.699Z,52.86
2024-05-09T03:32:17.072Z,52.82
2024-05-09T03:34:47.501Z,53.00
2024-05-09T03:37:17.810Z,53.01
2024-05-09T03:39:48.024Z,53.06
2024-05-09T03:42:18.249Z,53.18
2024-05-09T03:44:48.401Z,53.26
2024-05-09T03:47:18.745Z,53.21
2024-05-09T03:49:49.090Z,53.49
2024-05-09T03:52:19.367Z,53.54
2024-05-09T03:54:47.140Z,53.60
2024-05-09T03:57:17.400Z,53.61
2024-05-09T03:59:44.869Z,53.59
2024-05-09T04:02:15.222Z,53.65
2024-05-09T04:04:45.530Z,53.52
2024-05-09T04:07:16.818Z,53.59
2024-05-09T04:09:44.350Z,53.53
2024-05-09T04:12:14.643Z,53.46
2024-05-09T04:14:43.077Z,53.44
2024-05-09T04:17:13.299Z,53.45
2024-05-09T04:19:40.915Z,53.43
2024-05-09T04:22:13.986Z,53.30
2024-05-09T04:24:41.535Z,53.52
2024-05-09T04:27:11.766Z,53.57
2024-05-09T04:29:40.810Z,53.53
2024-05-09T04:32:11.391Z,53.65
2024-05-09T04:34:38.940Z,53.75
2024-05-09T04:37:09.191Z,53.83
2024-05-09T04:39:39.359Z,53.78
2024-05-09T04:42:09.602Z,54.07
2024-05-09T04:44:39.074Z,54.10
2024-05-09T04:47:09.285Z,54.15
2024-05-09T04:49:36.978Z,54.26
2024-05-09T04:52:07.536Z,54.32
2024-05-09T04:54:36.627Z,54.37
2024-05-09T04:57:09.884Z,54.22
2024-05-09T04:59:37.553Z,54.46
2024-05-09T05:02:08.139Z,54.55
2024-05-09T05:04:35.686Z,54.62
2024-05-09T05:07:05.960Z,54.75
2024-05-09T05:09:33.489Z,54.87
2024-05-09T05:12:23.867Z,54.90
2024-05-09T05:14:54.132Z,54.73
2024-05-09T05:17:24.442Z,54.85
2024-05-09T05:19:52.298Z,54.80
2024-05-09T05:22:22.634Z,54.74
2024-05-09T05:24:50.100Z,54.80
2024-05-09T05:27:20.285Z,54.83
2024-05-09T05:29:47.886Z,54.87
2024-05-09T05:32:21.015Z,54.68
2024-05-09T05:34:48.724Z,54.74
2024-05-09T05:37:18.954Z,54.81
2024-05-09T05:39:46.492Z,54.87
2024-05-09T05:42:17.232Z,55.04
2024-05-09T05:44:44.785Z,55.21
2024-05-09T05:47:15.032Z,55.64
2024-05-09T05:49:45.414Z,55.34
2024-05-09T05:52:15.752Z,55.42
2024-05-09T05:54:43.298Z,55.42
2024-05-09T05:57:13.882Z,55.34
2024-05-09T05:59:41.516Z,55.49
2024-05-09T06:02:13.970Z,55.41
2024-05-09T06:04:42.677Z,55.39
2024-05-09T06:07:15.648Z,55.22
2024-05-09T06:09:44.769Z,55.35
2024-05-09T06:12:16.428Z,55.19
2024-05-09T06:14:44.468Z,55.38
2024-05-09T06:17:14.722Z,55.55
2024-05-09T06:19:42.336Z,55.35
2024-05-09T06:22:15.199Z,55.16
2024-05-09T06:24:43.106Z,55.13
2024-05-09T06:27:13.248Z,54.88
2024-05-09T06:29:40.879Z,54.74
2024-05-09T06:32:11.277Z,54.54
2024-05-09T06:34:38.951Z,54.26
2024-05-09T06:37:09.339Z,54.34
2024-05-09T06:39:39.553Z,53.97
2024-05-09T06:42:09.809Z,53.97
2024-05-09T06:44:37.384Z,53.55
2024-05-09T06:47:08.020Z,53.28
2024-05-09T06:49:35.858Z,53.25
2024-05-09T06:52:06.411Z,52.66
2024-05-09T06:54:33.956Z,52.49
2024-05-09T06:57:07.325Z,51.90
2024-05-09T06:59:34.892Z,51.75
2024-05-09T07:02:05.976Z,51.70
2024-05-09T07:04:36.314Z,51.44
2024-05-09T07:07:04.548Z,50.34
2024-05-09T07:09:34.819Z,49.89
2024-05-09T07:12:07.020Z,50.23
2024-05-09T07:14:38.386Z,49.69
2024-05-09T07:17:07.435Z,48.10
2024-05-09T07:19:37.896Z,46.60
2024-05-09T07:22:05.555Z,45.34
2024-05-09T07:24:35.894Z,44.69
2024-05-09T07:27:06.321Z,43.90
2024-05-09T07:29:38.453Z,43.89
2024-05-09T07:32:07.338Z,43.81
2024-05-09T07:34:37.744Z,44.29
2024-05-09T07:37:06.365Z,44.27
2024-05-09T07:39:36.586Z,44.34
2024-05-09T07:42:06.877Z,44.63
2024-05-09T07:44:37.228Z,44.11
2024-05-09T07:48:14.392Z,45.08
2024-05-09T07:55:02.945Z,41.28
2024-05-09T07:57:33.372Z,40.96
2024-05-09T08:00:04.552Z,40.15
2024-05-09T08:02:32.351Z,39.24
2024-05-09T08:05:02.922Z,40.10
2024-05-09T08:07:31.674Z,39.64
2024-05-09T08:10:01.979Z,40.35
2024-05-09T08:12:29.615Z,40.02
2024-05-09T08:15:03.588Z,40.16
2024-05-09T08:17:31.240Z,40.14
2024-05-09T08:20:05.409Z,38.48
2024-05-09T08:22:33.441Z,37.46
2024-05-09T08:25:03.646Z,37.21
2024-05-09T08:27:31.316Z,37.02
2024-05-09T08:30:04.902Z,37.61
2024-05-09T08:32:35.107Z,38.20
2024-05-09T08:35:05.495Z,38.34
2024-05-09T08:37:37.912Z,38.65
2024-05-09T08:40:23.469Z,38.81
2024-05-09T08:42:57.783Z,38.85
2024-05-09T08:45:30.971Z,38.29
2024-05-09T08:48:01.579Z,37.33
2024-05-09T08:50:38.136Z,35.05
2024-05-09T08:53:07.583Z,36.08
2024-05-09T08:55:41.964Z,36.38
2024-05-09T08:58:16.232Z,37.65
2024-05-09T09:00:50.319Z,37.71
2024-05-09T09:03:19.680Z,38.28
2024-05-09T09:05:57.131Z,39.12
2024-05-09T09:08:26.588Z,38.24
2024-05-09T09:10:59.410Z,37.55
2024-05-09T09:13:27.948Z,34.50
2024-05-09T09:16:03.162Z,34.37
2024-05-09T09:18:31.172Z,34.37
2024-05-09T09:21:02.518Z,34.26
2024-05-09T09:23:30.655Z,34.53
2024-05-09T09:26:02.443Z,35.14
2024-05-09T09:28:30.284Z,35.63
2024-05-09T09:31:07.303Z,35.32
2024-05-09T09:33:36.332Z,34.27
2024-05-09T09:36:08.994Z,35.01
2024-05-09T09:38:38.067Z,35.58
2024-05-09T09:41:10.957Z,35.88
2024-05-09T09:43:40.515Z,35.21
2024-05-09T09:46:15.201Z,35.42
2024-05-09T09:48:44.269Z,33.47
2024-05-09T09:51:14.879Z,33.85
2024-05-09T09:53:44.127Z,33.19
2024-05-09T09:56:14.902Z,32.11
2024-05-09T09:58:43.992Z,32.59
2024-05-09T10:01:17.048Z,33.08
2024-05-09T10:03:45.788Z,34.36
2024-05-09T10:06:17.233Z,34.44
2024-05-09T10:08:46.458Z,34.08
2024-05-09T10:11:16.794Z,35.22
2024-05-09T10:13:44.810Z,33.52
2024-05-09T10:16:24.635Z,30.57
2024-05-09T10:18:52.637Z,30.29
2024-05-09T10:21:24.088Z,29.45
2024-05-09T10:23:58.231Z,28.70
2024-05-09T10:26:35.907Z,28.72
2024-05-09T10:29:12.330Z,28.65
2024-05-09T10:31:48.479Z,29.58
2024-05-09T10:34:20.084Z,29.28
2024-05-09T10:36:55.730Z,29.15
2024-05-09T10:39:25.071Z,30.49
2024-05-09T10:41:55.307Z,29.97
2024-05-09T10:44:22.835Z,27.71
2024-05-09T10:46:56.512Z,26.78
2024-05-09T10:49:24.294Z,26.15
2024-05-09T10:51:55.725Z,26.46
2024-05-09T10:54:23.240Z,27.19
2024-05-09T10:56:59.580Z,26.25
2024-05-09T10:59:33.492Z,26.48
2024-05-09T11:02:07.990Z,28.35
2024-05-09T11:04:37.144Z,27.87
2024-05-09T11:07:11.624Z,27.54
2024-05-09T11:09:39.865Z,27.66
2024-05-09T11:12:10.934Z,27.84
2024-05-09T11:14:38.629Z,28.61
2024-05-09T11:17:11.607Z,28.03
2024-05-09T11:19:40.265Z,28.07
2024-05-09T11:22:11.048Z,26.72
2024-05-09T11:24:38.754Z,25.50
2024-05-09T11:27:09.327Z,24.78
2024-05-09T11:29:38.372Z,24.71
2024-05-09T11:32:13.890Z,23.42
2024-05-09T11:34:42.497Z,24.98
2024-05-09T11:37:13.997Z,24.12
2024-05-09T11:39:41.678Z,23.58
2024-05-09T11:42:11.929Z,22.39
2024-05-09T11:44:39.487Z,22.50
2024-05-09T11:47:12.495Z,22.73
2024-05-09T11:49:40.165Z,23.75
2024-05-09T11:52:10.346Z,25.69
2024-05-09T11:54:37.999Z,24.95
2024-05-09T11:57:09.657Z,23.96
2024-05-09T11:59:37.217Z,22.82
2024-05-09T12:02:07.798Z,21.80
2024-05-09T12:04:38.274Z,21.40
2024-05-09T12:07:11.323Z,21.76
2024-05-09T12:09:39.874Z,22.47
2024-05-09T12:12:10.217Z,23.40
2024-05-09T12:14:37.746Z,24.20
2024-05-09T12:17:08.456Z,24.50
2024-05-09T12:19:38.890Z,23.64
2024-05-09T12:22:09.338Z,23.11
2024-05-09T12:24:37.318Z,24.09
2024-05-09T12:27:08.135Z,23.31
2024-05-09T12:29:38.292Z,24.06
2024-05-09T12:32:09.628Z,23.02
2024-05-09T12:34:39.945Z,23.16
2024-05-09T12:37:10.559Z,24.53
2024-05-09T12:39:38.212Z,24.15
2024-05-09T12:42:09.775Z,23.10
2024-05-09T12:44:38.680Z,23.44
2024-05-09T12:47:08.939Z,25.33
2024-05-09T12:49:36.721Z,25.04
2024-05-09T12:52:10.357Z,24.33
2024-05-09T12:54:38.040Z,24.88
2024-05-09T12:57:11.464Z,23.84
2024-05-09T12:59:39.071Z,24.70
2024-05-09T13:02:09.570Z,23.98
2024-05-09T13:04:38.055Z,24.14
2024-05-09T13:07:11.387Z,23.65
2024-05-09T13:09:39.026Z,24.85
2024-05-09T13:12:09.614Z,24.21
2024-05-09T13:14:37.501Z,24.33
2024-05-09T13:17:08.128Z,24.62
2024-05-09T13:19:35.725Z,24.87
2024-05-09T13:22:06.047Z,23.11
2024-05-09T13:24:36.526Z,23.11
2024-05-09T13:27:07.047Z,23.28
2024-05-09T13:29:34.744Z,23.18
2024-05-09T13:32:04.930Z,23.78
2024-05-09T13:34:32.459Z,22.97
2024-05-09T13:37:02.711Z,22.69
2024-05-09T13:39:30.954Z,23.30
2024-05-09T13:42:04.255Z,23.65
2024-05-09T13:44:31.815Z,23.49
2024-05-09T13:47:02.200Z,23.40
2024-05-09T13:49:29.789Z,23.21
2024-05-09T13:52:00.031Z,24.56
2024-05-09T13:54:27.629Z,24.69
2024-05-09T13:57:00.974Z,25.11
2024-05-09T13:59:31.236Z,23.16
2024-05-09T14:02:01.797Z,23.72
2024-05-09T14:04:29.537Z,23.41
2024-05-09T14:06:59.884Z,23.30
2024-05-09T14:09:28.313Z,22.67
2024-05-09T14:11:58.619Z,23.04
2024-05-09T14:14:32.193Z,23.14
2024-05-09T14:17:02.659Z,22.35
2024-05-09T14:19:30.398Z,23.20
2024-05-09T14:22:00.619Z,23.34
2024-05-09T14:24:28.380Z,23.08
2024-05-09T14:26:58.607Z,22.98
2024-05-09T14:29:26.232Z,23.82
2024-05-09T14:31:59.166Z,22.69
2024-05-09T14:34:28.035Z,23.58
2024-05-09T14:36:59.036Z,22.54
2024-05-09T14:39:26.581Z,22.72
2024-05-09T14:41:56.760Z,23.08
2024-05-09T14:44:24.309Z,22.25
2024-05-09T14:46:54.516Z,22.61
2024-05-09T14:49:24.810Z,22.53
2024-05-09T14:51:55.141Z,23.56
2024-05-09T14:54:22.685Z,23.69
2024-05-09T14:56:54.917Z,23.61
2024-05-09T14:59:23.048Z,24.36
2024-05-09T15:01:53.288Z,24.27
2024-05-09T15:04:23.773Z,24.83
2024-05-09T15:06:54.859Z,25.11
2024-05-09T15:09:22.381Z,25.36
2024-05-09T15:11:52.562Z,25.66
2024-05-09T15:14:20.589Z,25.46
2024-05-09T15:16:51.987Z,25.62
2024-05-09T15:19:19.891Z,25.92
2024-05-09T15:21:53.075Z,26.17
2024-05-09T15:24:20.559Z,27.10
2024-05-09T15:26:51.430Z,27.47
2024-05-09T15:29:19.023Z,27.18
2024-05-09T15:31:49.235Z,27.39
2024-05-09T15:34:16.844Z,27.65
2024-05-09T15:36:51.139Z,28.07
2024-05-09T15:39:21.573Z,27.78
2024-05-09T15:41:53.089Z,27.68
2024-05-09T15:44:20.623Z,28.27
2024-05-09T15:46:51.231Z,28.45
2024-05-09T15:49:19.093Z,28.39
2024-05-09T15:51:49.421Z,28.35
2024-05-09T15:54:21.531Z,30.02
2024-05-09T15:56:52.467Z,28.19
2024-05-09T15:59:24.126Z,28.19
2024-05-09T16:01:51.723Z,27.92
2024-05-09T16:04:22.472Z,28.19
2024-05-09T16:06:50.193Z,28.39
2024-05-09T16:09:21.294Z,28.77
2024-05-09T16:11:51.574Z,28.24
2024-05-09T16:14:21.831Z,28.65
2024-05-09T16:16:51.331Z,29.13
2024-05-09T16:19:21.964Z,30.22
2024-05-09T16:21:49.629Z,30.48
2024-05-09T16:24:19.827Z,30.93
2024-05-09T16:26:47.410Z,31.68
2024-05-09T16:29:20.455Z,31.80
2024-05-09T16:31:48.126Z,32.23
2024-05-09T16:34:18.540Z,31.89
2024-05-09T16:36:46.302Z,32.02
2024-05-09T16:39:16.507Z,32.48
2024-05-09T16:41:44.086Z,31.98
2024-05-09T16:44:14.302Z,33.13
2024-05-09T16:46:44.619Z,33.92
2024-05-09T16:49:15.134Z,34.44
2024-05-09T16:51:42.715Z,34.82
2024-05-09T16:54:12.929Z,35.18
2024-05-09T16:56:40.537Z,35.24
2024-05-09T16:59:10.705Z,35.46
2024-05-09T17:01:38.307Z,35.60
2024-05-09T17:04:11.522Z,35.44
2024-05-09T17:06:39.361Z,35.78
2024-05-09T17:09:11.975Z,36.02
2024-05-09T17:11:45.723Z,36.25
2024-05-09T17:14:16.163Z,36.23
2024-05-09T17:16:43.772Z,36.34
2024-05-09T17:19:17.351Z,36.69
2024-05-09T17:21:44.892Z,36.88
2024-05-09T17:24:15.186Z,37.11
2024-05-09T17:26:42.818Z,37.14
2024-05-09T17:29:13.133Z,37.09
2024-05-09T17:31:40.719Z,37.21
2024-05-09T17:34:11.155Z,37.27
2024-05-09T17:36:41.601Z,37.18
2024-05-09T17:39:11.818Z,37.19
2024-05-09T17:41:42.037Z,37.42
2024-05-09T17:44:09.705Z,37.70
2024-05-09T17:46:40.068Z,37.29
2024-05-09T17:49:07.675Z,37.14
2024-05-09T17:51:38.451Z,37.30
2024-05-09T17:54:08.701Z,37.31
2024-05-09T17:56:38.957Z,37.37
2024-05-09T17:59:09.291Z,37.16
2024-05-09T18:01:41.158Z,37.56
2024-05-09T18:04:08.971Z,37.75
2024-05-09T18:06:39.302Z,37.83
2024-05-09T18:09:09.724Z,37.88
2024-05-09T18:11:40.723Z,37.98
2024-05-09T18:14:08.485Z,38.08
2024-05-09T18:16:38.732Z,38.22
2024-05-09T18:19:06.493Z,38.37
2024-05-09T18:21:36.782Z,38.62
2024-05-09T18:24:04.545Z,38.87
2024-05-09T18:26:37.441Z,38.87
2024-05-09T18:29:05.344Z,39.12
2024-05-09T18:31:35.601Z,39.34
2024-05-09T18:34:03.287Z,39.62
2024-05-09T18:36:34.378Z,39.88
2024-05-09T18:39:01.980Z,40.08
2024-05-09T18:41:32.345Z,40.24
2024-05-09T18:44:02.580Z,40.35
2024-05-09T18:46:32.918Z,40.76
2024-05-09T18:49:00.719Z,41.03
2024-05-09T18:51:31.183Z,41.42
2024-05-09T18:53:58.829Z,41.69
2024-05-09T18:56:29.216Z,42.00
2024-05-09T18:58:56.719Z,42.37
2024-05-09T19:01:29.774Z,42.48
2024-05-09T19:03:57.468Z,42.65
2024-05-09T19:06:27.881Z,42.65
2024-05-09T19:08:55.686Z,42.58
2024-05-09T19:11:26.371Z,42.67
2024-05-09T19:13:53.966Z,42.63
2024-05-09T19:16:24.422Z,42.57
2024-05-09T19:18:55.805Z,42.29
2024-05-09T19:21:26.172Z,42.53
2024-05-09T19:23:55.588Z,42.55
2024-05-09T19:26:26.413Z,42.65
2024-05-09T19:28:54.029Z,42.71
2024-05-09T19:31:24.319Z,42.91
2024-05-09T19:33:54.667Z,42.83
2024-05-09T19:36:25.758Z,43.13
2024-05-09T19:38:53.454Z,43.26
2024-05-09T19:41:23.648Z,43.16
2024-05-09T19:43:51.167Z,43.22
2024-05-09T19:46:21.529Z,43.11
2024-05-09T19:48:52.111Z,43.24
2024-05-09T19:51:22.392Z,43.24
2024-05-09T19:53:55.188Z,44.46
2024-05-09T19:56:23.022Z,44.78
2024-05-09T19:58:53.259Z,44.91
2024-05-09T20:01:20.987Z,45.09
2024-05-09T20:03:51.605Z,45.07
2024-05-09T20:06:24.524Z,45.07
2024-05-09T20:08:57.290Z,45.30
2024-05-09T20:11:26.159Z,45.28
2024-05-09T20:13:57.093Z,45.36
2024-05-09T20:16:24.918Z,46.04
2024-05-09T20:18:55.394Z,45.52
2024-05-09T20:21:25.697Z,44.99
2024-05-09T20:23:55.838Z,44.96
2024-05-09T20:26:23.487Z,44.87
2024-05-09T20:28:55.040Z,45.08
2024-05-09T20:31:22.713Z,45.17
2024-05-09T20:33:53.044Z,45.22
2024-05-09T20:36:20.640Z,45.28
2024-05-09T20:38:53.569Z,45.10
2024-05-09T20:41:21.060Z,45.34
2024-05-09T20:43:51.224Z,45.51
2024-05-09T20:46:18.944Z,45.61
2024-05-09T20:48:49.531Z,45.71
2024-05-09T20:51:17.100Z,45.67
2024-05-09T20:53:47.303Z,45.65
2024-05-09T20:56:17.551Z,45.57
2024-05-09T20:58:47.781Z,45.73
2024-05-09T21:01:15.383Z,47.02
2024-05-09T21:03:45.807Z,48.53
2024-05-09T21:06:13.420Z,48.83
2024-05-09T21:08:44.790Z,49.30
2024-05-09T21:11:12.324Z,49.46
2024-05-09T21:13:45.345Z,49.33
2024-05-09T21:16:13.005Z,49.60
2024-05-09T21:18:43.399Z,49.52
2024-05-09T21:21:11.002Z,49.45
2024-05-09T21:23:41.144Z,47.90
2024-05-09T21:26:08.664Z,49.00
2024-05-09T21:28:38.974Z,49.37
2024-05-09T21:31:09.483Z,49.42
2024-05-09T21:33:39.856Z,49.69
2024-05-09T21:36:09.686Z,49.56
2024-05-09T21:38:43.158Z,49.50
2024-05-09T21:41:10.768Z,49.79
2024-05-09T21:43:41.471Z,49.89
2024-05-09T21:46:11.748Z,49.65
2024-05-09T21:48:42.040Z,49.66
2024-05-09T21:51:13.775Z,49.43
2024-05-09T21:53:44.159Z,49.82
2024-05-09T21:56:11.834Z,49.78
2024-05-09T21:58:41.982Z,49.77
2024-05-09T22:01:12.313Z,49.62
2024-05-09T22:03:42.654Z,49.72
2024-05-09T22:06:10.372Z,49.77
2024-05-09T22:08:40.477Z,49.84
2024-05-09T22:11:08.271Z,49.88
2024-05-09T22:13:38.523Z,49.87
2024-05-09T22:16:07.224Z,49.97
2024-05-09T22:18:40.264Z,49.92
2024-05-09T22:21:07.787Z,50.14
2024-05-09T22:23:38.040Z,50.15
2024-05-09T22:26:05.783Z,50.36
2024-05-09T22:28:35.986Z,50.46
2024-05-09T22:31:03.779Z,50.51
2024-05-09T22:33:34.189Z,50.56
2024-05-09T22:36:07.271Z,50.37
2024-05-09T22:38:37.510Z,50.47
2024-05-09T22:41:06.851Z,50.47
2024-05-09T22:43:37.057Z,50.52
2024-05-09T22:46:04.862Z,50.47
2024-05-09T22:48:35.333Z,50.54
2024-05-09T22:51:06.071Z,50.46
2024-05-09T22:53:36.324Z,50.79
2024-05-09T22:56:03.912Z,50.80
2024-05-09T22:58:34.610Z,50.83
2024-05-09T23:01:02.467Z,50.94
2024-05-09T23:03:33.074Z,51.20
2024-05-09T23:06:00.692Z,51.21
2024-05-09T23:08:33.541Z,51.04
2024-05-09T23:11:01.283Z,51.34
2024-05-09T23:13:31.639Z,51.31
2024-05-09T23:15:59.216Z,51.35
2024-05-09T23:18:29.578Z,51.37
2024-05-09T23:20:57.188Z,51.40
2024-05-09T23:23:27.420Z,51.40
2024-05-09T23:25:57.613Z,51.30
2024-05-09T23:28:27.969Z,51.42
2024-05-09T23:30:55.682Z,50.40
2024-05-09T23:33:25.977Z,49.25
2024-05-09T23:35:53.759Z,49.05
2024-05-09T23:38:24.926Z,48.87
2024-05-09T23:40:52.479Z,49.11
2024-05-09T23:43:25.623Z,48.92
2024-05-09T23:45:53.301Z,49.11
2024-05-09T23:48:23.649Z,48.95
2024-05-09T23:50:51.244Z,48.93
2024-05-09T23:53:21.736Z,48.89
2024-05-09T23:55:49.246Z,48.99
2024-05-09T23:58:19.512Z,49.06
